Weather at Kaben Airport

Public forecast

Using degrees Celsius for public forecast. Weather courtesy of forecast.io.

Closest aviation weather report (METAR) to Kaben Airport

Report is more than 6 hours old.

Closest report is Marshall Islands International Airport, 113.1 nm (209.5 km) SSE.

2023/01/25 23:52 (retrieved 23 hours ago)

PKMJ 252352Z 04014KT 15SM FEW015 SCT050 BKN120 OVC300 30/25 A2980 RMK LAST

Closest aviation forecast (TAF) to Kaben Airport

Closest forecast is Marshall Islands International Airport, 113.1 nm (209.5 km) SSE.

2023/01/26 18:35 (retrieved 4 hours ago)

TAF PKMJ 261728Z 2618/2718 07018G28KT P6SM VCSH FEW016 SCT050